Terminal Aerodrome Forecast
Issued by NWS Buffalo, NY

Home | Current Version | Previous Version | Text Only | Print | Product List | Glossary On
Versions: 1 2 3 4 5 6 7 8 9 10 11 12 13 14 15 16 17 18 19 20 21 22 23 24 25 26 27 28 29 30 31 32
000
FTUS41 KBUF 231500 AAB
TAFROC
TAF AMD
KROC 231519Z 2315/2412 04006KT P6SM SCT008 BKN025
      TEMPO 2316/2318 BKN015
     FM231800 07008KT P6SM BKN035
     FM240200 12006KT P6SM BKN200=

USA.gov is the U.S. government's official web portal to all federal, state and local government web resources and services.